Time;durP1;ratioP1;P1;durP2;ratioP2;P2;SDS_P1;SDS_P2;PMS_P1;PMS_P2;Temp;Humidity;BMP_temperature;BMP_pressure;BME280_temperature;BME280_humidity;BME280_pressure;Samples;Min_cycle;Max_cycle;Signal;HPM_P1;HPM_P2
2022/04/06 00:00:20;;;;;;;12.60;4.00;;;13.10;57.20;;;;;;5061764;28;20055;-48
2022/04/06 00:02:47;;;;;;;10.63;3.92;;;13.00;57.10;;;;;;5058606;28;20053;-44
2022/04/06 00:05:15;;;;;;;11.60;3.85;;;13.00;57.00;;;;;;5062026;28;20416;-44
2022/04/06 00:07:44;;;;;;;14.63;3.85;;;13.00;56.90;;;;;;5061907;28;20053;-43
2022/04/06 00:10:14;;;;;;;9.55;3.00;;;13.00;56.90;;;;;;5061089;28;20052;-44
2022/04/06 00:12:41;;;;;;;10.18;3.45;;;13.00;56.80;;;;;;5059336;28;20130;-49
2022/04/06 00:15:12;;;;;;;13.02;3.47;;;13.00;56.70;;;;;;5059475;28;20052;-46
2022/04/06 00:17:40;;;;;;;10.18;3.03;;;13.00;56.50;;;;;;5061341;28;20075;-44
2022/04/06 00:20:10;;;;;;;10.13;3.30;;;13.00;56.70;;;;;;5062510;28;20060;-46
2022/04/06 00:22:37;;;;;;;14.88;3.53;;;13.00;56.40;;;;;;5060448;28;20059;-44
2022/04/06 00:25:05;;;;;;;12.93;3.28;;;12.90;56.20;;;;;;5058904;28;20049;-45
2022/04/06 00:27:33;;;;;;;15.00;2.75;;;12.90;56.20;;;;;;5061316;28;20056;-45
2022/04/06 00:30:01;;;;;;;7.53;2.55;;;12.90;56.30;;;;;;5061700;28;20049;-50
2022/04/06 00:32:30;;;;;;;11.60;3.10;;;12.90;56.40;;;;;;5057031;28;20396;-43
2022/04/06 00:37:42;;;;;;;7.85;2.60;;;12.90;56.30;;;;;;5065934;28;20075;-44
2022/04/06 00:40:10;;;;;;;11.00;2.47;;;13.00;56.40;;;;;;5061676;28;20052;-44
2022/04/06 00:42:37;;;;;;;17.80;5.93;;;12.90;56.20;;;;;;5058833;28;20040;-46
2022/04/06 00:45:08;;;;;;;11.68;3.15;;;13.00;56.10;;;;;;5060244;28;20066;-46
2022/04/06 00:47:37;;;;;;;13.90;3.22;;;12.90;56.00;;;;;;5061988;28;20052;-44
2022/04/06 00:50:05;;;;;;;9.85;2.88;;;12.90;55.80;;;;;;5062012;28;20056;-45
2022/04/06 00:52:33;;;;;;;10.55;2.95;;;12.90;55.90;;;;;;5059972;28;20056;-43
2022/04/06 00:55:01;;;;;;;11.05;3.35;;;12.90;55.90;;;;;;5060533;28;20052;-44
2022/04/06 00:57:30;;;;;;;7.57;2.53;;;12.90;55.90;;;;;;5061968;28;20060;-44
2022/04/06 00:59:58;;;;;;;10.25;2.80;;;12.90;55.90;;;;;;5061752;28;20506;-44
2022/04/06 01:02:26;;;;;;;12.82;2.70;;;12.90;55.80;;;;;;5057299;28;20074;-44
2022/04/06 01:04:55;;;;;;;10.13;2.70;;;12.90;55.80;;;;;;5060616;28;20056;-44
2022/04/06 01:07:23;;;;;;;10.35;2.58;;;12.90;55.70;;;;;;5060833;28;20060;-44
2022/04/06 01:09:51;;;;;;;7.72;2.33;;;12.80;55.60;;;;;;5060468;28;20063;-46
2022/04/06 01:12:20;;;;;;;14.15;3.30;;;12.90;55.70;;;;;;5057750;28;20064;-45
2022/04/06 01:14:49;;;;;;;10.35;2.53;;;12.80;55.40;;;;;;5059816;28;20048;-44
2022/04/06 01:17:16;;;;;;;14.75;3.33;;;12.90;55.40;;;;;;5060012;28;20056;-43
2022/04/06 01:19:47;;;;;;;12.52;2.63;;;12.80;55.30;;;;;;5060544;28;20061;-43
2022/04/06 01:22:18;;;;;;;7.68;2.72;;;12.80;55.20;;;;;;5058741;28;20408;-44
2022/04/06 01:24:47;;;;;;;12.93;3.22;;;12.80;55.30;;;;;;5060415;28;20059;-45
2022/04/06 01:27:15;;;;;;;10.57;2.75;;;12.80;55.30;;;;;;5058523;28;20480;-44
2022/04/06 01:29:43;;;;;;;8.05;2.08;;;12.80;55.30;;;;;;5063900;28;20055;-44
2022/04/06 01:32:13;;;;;;;10.40;2.65;;;12.80;55.40;;;;;;5061834;28;20408;-44
2022/04/06 01:34:41;;;;;;;14.07;2.60;;;12.80;55.40;;;;;;5065933;28;20052;-47
2022/04/06 01:37:10;;;;;;;7.88;2.28;;;12.80;55.30;;;;;;5064383;28;20550;-46
2022/04/06 01:39:40;;;;;;;10.25;2.30;;;12.80;55.20;;;;;;5061354;28;20059;-44
2022/04/06 01:42:10;;;;;;;15.27;4.00;;;12.80;55.20;;;;;;5062677;28;20053;-47
2022/04/06 01:44:38;;;;;;;10.77;2.72;;;12.80;55.20;;;;;;5064849;28;20052;-46
2022/04/06 01:47:07;;;;;;;6.47;2.05;;;12.80;55.20;;;;;;5064127;28;20083;-47
2022/04/06 01:52:21;;;;;;;10.25;2.47;;;12.80;55.00;;;;;;5068404;28;20063;-43
2022/04/06 01:54:51;;;;;;;8.75;2.33;;;12.80;54.90;;;;;;5063726;28;20044;-44
2022/04/06 01:57:20;;;;;;;10.23;2.30;;;12.80;54.70;;;;;;5063505;28;20052;-44
2022/04/06 01:59:48;;;;;;;8.05;2.25;;;12.70;54.70;;;;;;5063338;28;20056;-47
2022/04/06 02:02:17;;;;;;;10.38;2.67;;;12.70;54.60;;;;;;5061916;28;20603;-48
2022/04/06 02:04:44;;;;;;;14.77;2.70;;;12.80;54.70;;;;;;5064391;28;20055;-43
2022/04/06 02:07:13;;;;;;;5.82;1.95;;;12.70;54.60;;;;;;5063223;28;20060;-44
2022/04/06 02:09:42;;;;;;;8.43;2.42;;;12.70;54.70;;;;;;5062845;28;20052;-44
2022/04/06 02:12:13;;;;;;;10.10;3.85;;;12.70;54.60;;;;;;5063103;28;20053;-44
2022/04/06 02:14:40;;;;;;;10.45;2.97;;;12.70;54.50;;;;;;5064998;28;20045;-45
2022/04/06 02:17:08;;;;;;;13.10;2.33;;;12.70;54.60;;;;;;5062897;28;20053;-44
2022/04/06 02:19:37;;;;;;;6.95;2.20;;;12.70;54.50;;;;;;5062460;28;20057;-44
2022/04/06 02:22:04;;;;;;;7.97;2.30;;;12.70;54.60;;;;;;5061850;28;20048;-47
2022/04/06 02:24:32;;;;;;;7.15;2.60;;;12.70;54.60;;;;;;5064030;28;20055;-44
2022/04/06 02:26:59;;;;;;;8.75;2.30;;;12.70;54.50;;;;;;5063559;28;20052;-44
2022/04/06 02:29:28;;;;;;;10.43;2.60;;;12.70;54.50;;;;;;5063208;28;20052;-44
2022/04/06 02:31:56;;;;;;;11.23;2.20;;;12.70;54.50;;;;;;5062362;28;20060;-46
2022/04/06 02:34:24;;;;;;;9.20;3.13;;;12.70;54.50;;;;;;5063658;28;20071;-43
2022/04/06 02:36:51;;;;;;;9.48;2.20;;;12.70;54.40;;;;;;5064691;28;20063;-44
2022/04/06 02:39:18;;;;;;;10.50;2.70;;;12.60;54.50;;;;;;5079288;28;20048;-43
2022/04/06 02:41:46;;;;;;;12.02;2.92;;;12.70;54.50;;;;;;5081631;28;20048;-44
2022/04/06 02:44:15;;;;;;;15.68;2.88;;;12.60;54.50;;;;;;5084400;28;20214;-44
2022/04/06 02:46:44;;;;;;;12.60;2.55;;;12.60;54.50;;;;;;5083667;28;20415;-41
2022/04/06 02:49:11;;;;;;;14.07;2.83;;;12.60;54.50;;;;;;5081917;28;20044;-46
2022/04/06 02:51:39;;;;;;;10.13;2.80;;;12.60;54.60;;;;;;5081493;28;20052;-45
2022/04/06 02:54:07;;;;;;;8.48;2.60;;;12.60;54.60;;;;;;5083574;28;20071;-43
2022/04/06 02:56:35;;;;;;;8.30;2.58;;;12.60;54.70;;;;;;5082762;28;20067;-44
2022/04/06 02:59:02;;;;;;;13.68;4.60;;;12.60;54.70;;;;;;5082840;28;20059;-42
2022/04/06 03:01:30;;;;;;;10.23;2.97;;;12.50;54.70;;;;;;5079868;28;20740;-43
2022/04/06 03:03:59;;;;;;;13.10;2.75;;;12.50;54.70;;;;;;5084897;28;20415;-47
2022/04/06 03:06:27;;;;;;;7.10;2.30;;;12.60;54.80;;;;;;5083601;28;20411;-43
2022/04/06 03:08:55;;;;;;;7.05;2.67;;;12.50;54.70;;;;;;5084488;28;20447;-44
2022/04/06 03:11:23;;;;;;;9.55;2.28;;;12.60;54.80;;;;;;5080411;28;20055;-43
2022/04/06 03:13:51;;;;;;;9.45;2.60;;;12.50;54.80;;;;;;5083017;28;20059;-43
2022/04/06 03:16:19;;;;;;;11.77;2.92;;;12.50;54.70;;;;;;5082901;28;20066;-43
2022/04/06 03:18:46;;;;;;;11.25;2.30;;;12.50;54.80;;;;;;5083162;28;20488;-44
2022/04/06 03:21:15;;;;;;;7.13;2.60;;;12.50;54.70;;;;;;5082196;28;20067;-45
2022/04/06 03:23:43;;;;;;;7.45;2.40;;;12.50;54.70;;;;;;5081656;28;20063;-45
2022/04/06 03:26:11;;;;;;;9.07;2.53;;;12.50;54.80;;;;;;5084005;28;20052;-42
2022/04/06 03:28:39;;;;;;;10.18;2.55;;;12.50;54.80;;;;;;5081139;28;20415;-42
2022/04/06 03:31:07;;;;;;;9.40;2.63;;;12.50;54.70;;;;;;5080500;28;20052;-43
2022/04/06 03:33:35;;;;;;;7.20;1.90;;;12.50;54.70;;;;;;5081351;28;20059;-43
2022/04/06 03:36:03;;;;;;;7.95;2.33;;;12.50;54.60;;;;;;5083223;28;20059;-45
2022/04/06 03:38:32;;;;;;;16.05;2.55;;;12.50;54.60;;;;;;5070683;28;20056;-43
2022/04/06 03:41:00;;;;;;;11.00;2.22;;;12.50;54.40;;;;;;5058964;28;20064;-45
2022/04/06 03:43:28;;;;;;;9.90;2.70;;;12.50;54.40;;;;;;5059489;28;20044;-44
2022/04/06 03:45:55;;;;;;;6.40;2.30;;;12.50;54.30;;;;;;5060663;28;20052;-44
2022/04/06 03:48:23;;;;;;;7.47;2.28;;;12.50;54.30;;;;;;5059239;28;20044;-43
2022/04/06 03:50:51;;;;;;;11.30;2.13;;;12.50;54.20;;;;;;5063394;28;20060;-44
2022/04/06 03:53:19;;;;;;;9.18;1.77;;;12.50;54.10;;;;;;5060205;28;20405;-45
2022/04/06 03:55:48;;;;;;;4.72;1.80;;;12.50;53.80;;;;;;5060075;28;20048;-43
2022/04/06 03:58:15;;;;;;;8.75;3.03;;;12.40;53.80;;;;;;5063034;28;20056;-43
2022/04/06 04:00:43;;;;;;;5.22;1.70;;;12.40;53.90;;;;;;5057921;28;20511;-43
2022/04/06 04:03:11;;;;;;;9.40;2.35;;;12.40;54.00;;;;;;5059476;28;20416;-43
2022/04/06 04:05:38;;;;;;;5.00;1.63;;;12.40;53.90;;;;;;5063066;28;20045;-44
2022/04/06 04:08:06;;;;;;;6.47;1.77;;;12.40;53.80;;;;;;5062911;28;20500;-44
2022/04/06 04:10:34;;;;;;;5.25;1.73;;;12.40;53.80;;;;;;5062365;28;20500;-43
2022/04/06 04:13:03;;;;;;;7.60;1.90;;;12.40;53.70;;;;;;5058697;28;20052;-43
2022/04/06 04:15:31;;;;;;;6.68;2.08;;;12.50;53.70;;;;;;5059210;28;20052;-45
2022/04/06 04:17:58;;;;;;;10.20;2.03;;;12.50;53.60;;;;;;5055599;28;20056;-43
2022/04/06 04:20:26;;;;;;;5.53;1.63;;;12.50;53.70;;;;;;5063158;28;20493;-44
2022/04/06 04:22:53;;;;;;;5.07;1.90;;;12.40;53.70;;;;;;5060481;28;20044;-49
2022/04/06 04:25:21;;;;;;;5.93;1.73;;;12.40;53.60;;;;;;5060499;28;20052;-45
2022/04/06 04:27:50;;;;;;;5.75;2.00;;;12.50;53.60;;;;;;5058544;28;20412;-44
2022/04/06 04:30:21;;;;;;;5.07;1.40;;;12.50;53.50;;;;;;5060886;28;20060;-43
2022/04/06 04:32:49;;;;;;;9.10;1.90;;;12.50;53.40;;;;;;5060761;28;20063;-43
2022/04/06 04:35:16;;;;;;;6.22;1.58;;;12.50;53.50;;;;;;5062413;28;20059;-44
2022/04/06 04:37:44;;;;;;;6.35;1.92;;;12.50;53.40;;;;;;5063272;28;20055;-42
2022/04/06 04:40:12;;;;;;;6.40;1.65;;;12.50;53.30;;;;;;5078176;28;20058;-43
2022/04/06 04:42:40;;;;;;;5.25;1.60;;;12.50;53.10;;;;;;5072043;28;20059;-42
2022/04/06 04:45:11;;;;;;;5.25;1.58;;;12.40;53.40;;;;;;5081549;28;20071;-43
2022/04/06 04:47:40;;;;;;;3.08;1.30;;;12.40;52.90;;;;;;5081021;28;20048;-43
2022/04/06 04:50:09;;;;;;;6.40;1.40;;;12.40;52.90;;;;;;5079157;28;20055;-44
2022/04/06 04:52:36;;;;;;;10.38;2.10;;;12.40;52.90;;;;;;5081894;28;20081;-42
2022/04/06 04:55:04;;;;;;;4.88;1.63;;;12.40;52.80;;;;;;5075806;28;20052;-44
2022/04/06 04:57:31;;;;;;;7.15;1.58;;;12.40;52.80;;;;;;5077435;28;20503;-43
2022/04/06 04:59:59;;;;;;;6.72;1.60;;;12.50;52.90;;;;;;5081666;28;20059;-47
2022/04/06 05:02:26;;;;;;;6.88;1.88;;;12.40;52.60;;;;;;5082374;28;20056;-43
2022/04/06 05:04:55;;;;;;;5.53;1.52;;;12.40;52.50;;;;;;5081853;28;20407;-43
2022/04/06 05:07:22;;;;;;;5.28;1.75;;;12.40;52.30;;;;;;5082063;28;20413;-43
2022/04/06 05:09:50;;;;;;;7.20;1.80;;;12.40;52.40;;;;;;5078627;28;20056;-43
2022/04/06 05:12:17;;;;;;;7.53;1.70;;;12.40;52.40;;;;;;5080136;28;20044;-46
2022/04/06 05:14:45;;;;;;;7.72;1.35;;;12.40;52.20;;;;;;5081250;28;20056;-44
2022/04/06 05:17:12;;;;;;;6.50;1.67;;;12.40;52.20;;;;;;5080222;28;20048;-43
2022/04/06 05:19:40;;;;;;;11.20;1.92;;;12.30;52.10;;;;;;5080221;28;20059;-43
2022/04/06 05:22:09;;;;;;;8.95;1.80;;;12.30;52.10;;;;;;5079990;28;20048;-43
2022/04/06 05:24:37;;;;;;;7.43;1.73;;;12.30;51.90;;;;;;5077921;28;20052;-44
2022/04/06 05:27:04;;;;;;;8.45;1.35;;;12.30;51.80;;;;;;5077928;28;20523;-44
2022/04/06 05:29:32;;;;;;;4.90;1.40;;;12.30;51.80;;;;;;5080111;28;20052;-43
2022/04/06 05:32:00;;;;;;;7.80;1.60;;;12.30;51.80;;;;;;5078518;28;20075;-43
2022/04/06 05:34:27;;;;;;;11.30;1.92;;;12.30;51.80;;;;;;5077241;28;20060;-43
2022/04/06 05:36:55;;;;;;;8.57;1.20;;;12.30;51.60;;;;;;5080713;28;20048;-45
2022/04/06 05:39:24;;;;;;;5.28;1.30;;;12.30;51.60;;;;;;5062160;28;20052;-43
2022/04/06 05:41:51;;;;;;;5.20;1.23;;;12.30;51.50;;;;;;5058378;28;20401;-43
2022/04/06 05:44:21;;;;;;;5.57;1.33;;;12.30;51.40;;;;;;5062243;28;20408;-42
2022/04/06 05:46:49;;;;;;;8.80;1.48;;;12.30;51.40;;;;;;5058164;28;20476;-43
2022/04/06 05:49:17;;;;;;;7.55;1.42;;;12.30;51.40;;;;;;5059308;28;20067;-43
2022/04/06 05:51:45;;;;;;;5.63;1.30;;;12.30;51.20;;;;;;5059376;28;20044;-42
2022/04/06 05:54:12;;;;;;;4.78;0.90;;;12.30;51.30;;;;;;5058282;28;20404;-43
2022/04/06 05:56:41;;;;;;;5.10;1.27;;;12.30;51.40;;;;;;5058816;28;20045;-43
2022/04/06 05:59:09;;;;;;;3.83;1.15;;;12.30;51.50;;;;;;5060332;28;20412;-43
2022/04/06 06:01:36;;;;;;;5.28;1.20;;;12.30;51.40;;;;;;5057697;28;20044;-43
2022/04/06 06:04:04;;;;;;;4.90;1.17;;;12.30;51.40;;;;;;5061782;28;20488;-43
2022/04/06 06:06:32;;;;;;;6.15;1.20;;;12.30;51.60;;;;;;5057977;28;20052;-43
2022/04/06 06:09:00;;;;;;;6.53;1.60;;;12.30;51.50;;;;;;5059926;28;20044;-43
2022/04/06 06:11:27;;;;;;;6.70;2.28;;;12.30;51.50;;;;;;5056560;28;20752;-46
2022/04/06 06:13:56;;;;;;;13.10;3.25;;;12.30;51.40;;;;;;5052793;28;20057;-43
2022/04/06 06:16:24;;;;;;;6.63;2.50;;;12.30;51.40;;;;;;5061282;28;20056;-43
2022/04/06 06:18:52;;;;;;;11.20;4.63;;;12.30;51.30;;;;;;5063493;28;20056;-44
2022/04/06 06:21:19;;;;;;;10.75;5.15;;;12.30;51.50;;;;;;5062928;28;20055;-43
2022/04/06 06:23:47;;;;;;;18.98;7.13;;;12.30;51.40;;;;;;5059655;28;20411;-44
2022/04/06 06:26:14;;;;;;;31.75;18.13;;;12.40;51.50;;;;;;5060679;28;20056;-42
2022/04/06 06:28:42;;;;;;;17.63;11.25;;;12.30;51.40;;;;;;5064243;28;20051;-44
2022/04/06 06:31:11;;;;;;;7.55;3.95;;;12.40;51.50;;;;;;5061738;28;20071;-46
2022/04/06 06:33:39;;;;;;;5.60;2.90;;;12.40;51.40;;;;;;5060284;28;20500;-44
2022/04/06 06:36:06;;;;;;;5.32;1.88;;;12.40;51.50;;;;;;5060184;28;20059;-43
2022/04/06 06:38:34;;;;;;;7.30;2.15;;;12.40;51.50;;;;;;5071125;28;20059;-43
2022/04/06 06:41:01;;;;;;;7.25;1.67;;;12.40;51.30;;;;;;5082100;28;20070;-43
2022/04/06 06:43:29;;;;;;;5.85;1.40;;;12.50;51.30;;;;;;5078635;28;20052;-44
2022/04/06 06:45:57;;;;;;;4.90;1.30;;;12.50;51.40;;;;;;5080938;28;20114;-44
2022/04/06 06:48:26;;;;;;;3.08;1.33;;;12.50;51.30;;;;;;5084297;28;20070;-44
2022/04/06 06:50:53;;;;;;;6.10;1.40;;;12.40;51.30;;;;;;5083605;28;20048;-45
2022/04/06 06:53:21;;;;;;;8.18;1.40;;;12.50;51.40;;;;;;5079922;28;20407;-44
2022/04/06 06:55:48;;;;;;;7.30;1.67;;;12.50;51.30;;;;;;5083218;28;20052;-44
2022/04/06 06:58:16;;;;;;;9.70;1.50;;;12.50;51.40;;;;;;5080787;28;20044;-44
2022/04/06 07:00:43;;;;;;;4.43;1.30;;;12.50;51.40;;;;;;5079550;28;20058;-43
2022/04/06 07:03:11;;;;;;;4.38;1.30;;;12.50;51.30;;;;;;5083248;28;20415;-44
2022/04/06 07:05:39;;;;;;;10.43;1.95;;;12.50;51.10;;;;;;5084421;28;20056;-44
2022/04/06 07:08:08;;;;;;;5.10;1.67;;;12.50;51.00;;;;;;5080744;28;20044;-43
2022/04/06 07:10:35;;;;;;;4.78;1.42;;;12.50;51.10;;;;;;5082201;28;20074;-44
2022/04/06 07:13:03;;;;;;;4.45;1.10;;;12.50;50.90;;;;;;5080561;28;20063;-43
2022/04/06 07:15:31;;;;;;;4.38;2.42;;;12.50;50.80;;;;;;5083468;28;20052;-44
2022/04/06 07:18:00;;;;;;;7.30;1.40;;;12.60;51.00;;;;;;5079329;28;20407;-43
2022/04/06 07:20:29;;;;;;;3.10;1.02;;;12.60;50.90;;;;;;5079237;28;20055;-44
2022/04/06 07:22:58;;;;;;;5.45;1.00;;;12.60;50.80;;;;;;5082387;28;20051;-43
2022/04/06 07:25:25;;;;;;;4.70;1.10;;;12.60;50.60;;;;;;5083191;28;20055;-46
2022/04/06 07:27:53;;;;;;;7.25;1.02;;;12.60;50.50;;;;;;5083494;28;20048;-43
2022/04/06 07:30:20;;;;;;;7.25;1.20;;;12.60;50.60;;;;;;5081614;28;20052;-43
2022/04/06 07:32:48;;;;;;;6.72;1.35;;;12.60;50.70;;;;;;5079703;28;20051;-43
2022/04/06 07:35:16;;;;;;;6.43;1.10;;;12.60;50.70;;;;;;5083658;28;20392;-43
2022/04/06 07:37:45;;;;;;;3.67;1.02;;;12.60;50.60;;;;;;5082446;28;20066;-45
2022/04/06 07:40:17;;;;;;;2.20;0.82;;;12.70;50.70;;;;;;5083391;28;20052;-43
2022/04/06 07:42:46;;;;;;;5.35;1.42;;;12.70;50.50;;;;;;5080817;28;20511;-42
2022/04/06 07:45:16;;;;;;;4.20;1.05;;;12.70;50.40;;;;;;5081005;28;20056;-43
2022/04/06 07:47:45;;;;;;;5.30;1.00;;;12.70;50.40;;;;;;5079443;28;20052;-43
2022/04/06 07:50:13;;;;;;;7.18;1.13;;;12.60;50.30;;;;;;5080717;28;20048;-44
2022/04/06 07:52:42;;;;;;;3.65;0.85;;;12.70;50.50;;;;;;5081017;28;20796;-43
2022/04/06 07:55:11;;;;;;;4.93;1.00;;;12.70;50.50;;;;;;5080944;28;20419;-45
2022/04/06 07:57:43;;;;;;;2.92;0.90;;;12.70;50.60;;;;;;5082066;28;20048;-44
2022/04/06 08:00:15;;;;;;;16.27;6.57;;;12.70;50.50;;;;;;5081109;28;20048;-43
2022/04/06 08:02:44;;;;;;;6.28;1.50;;;12.70;50.60;;;;;;5082410;28;20138;-45
2022/04/06 08:05:12;;;;;;;9.70;1.65;;;12.80;50.40;;;;;;5079866;28;20534;-45
2022/04/06 08:07:43;;;;;;;8.77;1.63;;;12.80;50.50;;;;;;5081796;28;20052;-43
2022/04/06 08:10:13;;;;;;;4.00;1.08;;;12.80;50.40;;;;;;5079658;28;20047;-44
2022/04/06 08:12:42;;;;;;;5.50;1.20;;;12.80;50.10;;;;;;5081380;28;20048;-46
2022/04/06 08:15:11;;;;;;;7.18;1.10;;;12.90;50.20;;;;;;5080817;28;20507;-43
2022/04/06 08:17:40;;;;;;;22.15;9.45;;;12.90;50.30;;;;;;5081868;28;20059;-43
2022/04/06 08:20:09;;;;;;;13.27;3.97;;;12.90;50.30;;;;;;5082203;28;20499;-45
2022/04/06 08:22:37;;;;;;;5.25;1.75;;;12.90;50.00;;;;;;5080021;28;20059;-45
2022/04/06 08:25:06;;;;;;;5.00;1.15;;;12.90;50.10;;;;;;5081429;28;20056;-43
2022/04/06 08:27:36;;;;;;;3.05;1.30;;;13.00;49.90;;;;;;5082682;28;20063;-41
2022/04/06 08:30:07;;;;;;;4.43;1.60;;;13.00;49.90;;;;;;5081377;28;20488;-44
2022/04/06 08:32:34;;;;;;;4.57;1.25;;;13.00;49.90;;;;;;5080925;28;20060;-43
2022/04/06 08:35:03;;;;;;;6.97;1.30;;;13.10;50.00;;;;;;5081185;28;20059;-43
2022/04/06 08:37:32;;;;;;;4.82;0.85;;;13.10;49.70;;;;;;5079067;28;20067;-43
2022/04/06 08:40:00;;;;;;;5.88;0.95;;;13.10;49.80;;;;;;5080682;28;20059;-43
2022/04/06 08:42:32;;;;;;;3.17;0.95;;;13.10;49.70;;;;;;5081348;28;20052;-45
2022/04/06 08:45:01;;;;;;;12.18;5.00;;;13.20;49.80;;;;;;5081723;28;20055;-43
2022/04/06 08:47:32;;;;;;;6.63;1.80;;;13.20;50.00;;;;;;5080596;28;20067;-43
2022/04/06 08:50:00;;;;;;;10.23;1.50;;;13.30;49.70;;;;;;5081081;28;20534;-43
2022/04/06 08:52:27;;;;;;;4.72;1.17;;;13.30;49.90;;;;;;5080082;28;20048;-43
2022/04/06 08:54:55;;;;;;;6.32;1.38;;;13.40;50.30;;;;;;5079747;28;20055;-43
2022/04/06 08:57:22;;;;;;;6.03;1.27;;;13.50;49.60;;;;;;5080379;28;20056;-47
2022/04/06 08:59:50;;;;;;;8.23;1.10;;;13.50;49.40;;;;;;5082954;28;20048;-43
2022/04/06 09:02:21;;;;;;;5.47;1.20;;;13.50;49.00;;;;;;5079322;28;20059;-43
2022/04/06 09:04:54;;;;;;;8.63;1.10;;;13.60;49.10;;;;;;5080076;28;20950;-43
2022/04/06 09:07:23;;;;;;;5.25;0.95;;;13.60;48.80;;;;;;5079869;28;20052;-43
2022/04/06 09:09:51;;;;;;;4.28;1.15;;;13.60;49.10;;;;;;5077094;28;20051;-45
2022/04/06 09:12:21;;;;;;;5.00;1.08;;;13.70;49.00;;;;;;5079306;28;20441;-42
2022/04/06 09:14:49;;;;;;;6.57;1.20;;;13.70;48.90;;;;;;5081901;28;20052;-41
2022/04/06 09:17:21;;;;;;;4.88;0.80;;;13.70;48.50;;;;;;5079362;28;20407;-43
2022/04/06 09:19:50;;;;;;;4.53;1.00;;;13.70;48.50;;;;;;5081431;28;20052;-43
2022/04/06 09:22:21;;;;;;;5.63;0.98;;;13.70;48.30;;;;;;5079824;28;20048;-43
2022/04/06 09:24:57;;;;;;;5.85;1.10;;;13.80;48.30;;;;;;5081743;28;20415;-43
2022/04/06 09:27:31;;;;;;;5.25;1.20;;;13.80;48.50;;;;;;5081943;28;20060;-43
2022/04/06 09:29:59;;;;;;;4.38;1.15;;;13.80;48.50;;;;;;5081250;28;20658;-43
2022/04/06 09:32:26;;;;;;;4.82;1.30;;;13.80;48.50;;;;;;5080776;28;20056;-43
2022/04/06 09:34:54;;;;;;;6.07;1.17;;;13.90;48.50;;;;;;5081220;28;20514;-43
2022/04/06 09:37:27;;;;;;;6.35;1.20;;;14.00;48.50;;;;;;5080453;28;20070;-43
2022/04/06 09:39:57;;;;;;;3.78;1.10;;;13.90;48.30;;;;;;5061294;28;20511;-43
2022/04/06 09:42:26;;;;;;;3.47;1.33;;;14.00;48.30;;;;;;5061056;28;20052;-43
2022/04/06 09:47:42;;;;;;;4.72;0.90;;;14.00;48.10;;;;;;5061613;28;20416;-43
2022/04/06 09:50:12;;;;;;;6.10;1.10;;;14.00;48.10;;;;;;5061727;28;20056;-44
2022/04/06 09:52:42;;;;;;;5.03;1.20;;;14.00;48.00;;;;;;5064505;28;20064;-43
2022/04/06 09:55:10;;;;;;;6.88;1.08;;;14.00;47.80;;;;;;5064905;28;20515;-43
2022/04/06 09:57:42;;;;;;;4.95;0.82;;;14.00;47.80;;;;;;5063375;28;20052;-43
2022/04/06 10:00:12;;;;;;;8.18;2.63;;;14.10;47.90;;;;;;5062937;28;20056;-43
2022/04/06 10:02:42;;;;;;;4.10;1.17;;;14.10;47.70;;;;;;5064465;28;20076;-43
2022/04/06 10:05:14;;;;;;;4.40;1.25;;;14.10;47.50;;;;;;5060685;28;20055;-43
2022/04/06 10:07:45;;;;;;;4.60;1.38;;;14.00;47.50;;;;;;5065626;28;20408;-47
2022/04/06 10:10:14;;;;;;;4.30;1.20;;;14.10;47.50;;;;;;5063267;28;20826;-43
2022/04/06 10:12:42;;;;;;;3.22;0.90;;;14.00;47.50;;;;;;5060260;28;20075;-43
2022/04/06 10:15:11;;;;;;;3.28;0.98;;;14.10;47.50;;;;;;5065045;28;20056;-46
2022/04/06 10:17:38;;;;;;;8.65;1.65;;;14.00;47.40;;;;;;5064420;28;20044;-42
2022/04/06 10:20:16;;;;;;;5.38;1.02;;;14.00;47.20;;;;;;5064333;28;20057;-44
2022/04/06 10:22:54;;;;;;;4.72;1.08;;;14.00;47.70;;;;;;5060661;28;20044;-44
2022/04/06 10:25:29;;;;;;;7.40;1.10;;;13.90;47.00;;;;;;5064025;28;20067;-43
2022/04/06 10:27:58;;;;;;;6.10;1.33;;;14.00;47.20;;;;;;5063516;28;20075;-42
2022/04/06 10:30:28;;;;;;;5.78;1.10;;;14.00;47.50;;;;;;5063065;28;21248;-43
2022/04/06 10:32:58;;;;;;;5.65;0.88;;;14.00;47.50;;;;;;5061458;28;20052;-45
2022/04/06 10:35:32;;;;;;;4.35;1.20;;;14.00;47.50;;;;;;5064098;28;20055;-44
2022/04/06 10:38:18;;;;;;;4.57;0.90;;;14.10;47.50;;;;;;5070616;28;20404;-43
2022/04/06 10:41:09;;;;;;;6.97;2.03;;;14.10;47.10;;;;;;5079643;28;20048;-43
2022/04/06 10:43:50;;;;;;;7.15;1.08;;;14.10;46.90;;;;;;5072580;28;20052;-42
2022/04/06 10:46:31;;;;;;;6.18;1.00;;;14.20;47.10;;;;;;5081017;28;20044;-43
2022/04/06 10:49:00;;;;;;;5.68;0.98;;;14.20;46.80;;;;;;5082156;28;20051;-42
2022/04/06 10:51:30;;;;;;;2.97;0.90;;;14.10;46.80;;;;;;5079706;28;20063;-43
2022/04/06 10:53:59;;;;;;;6.50;0.90;;;14.10;46.80;;;;;;5082798;28;20407;-43
2022/04/06 10:56:51;;;;;;;5.93;1.30;;;14.10;47.00;;;;;;5081099;28;20051;-45
2022/04/06 10:59:19;;;;;;;2.70;0.82;;;14.20;47.60;;;;;;5081532;28;20055;-42
2022/04/06 11:01:48;;;;;;;7.82;2.53;;;14.20;47.80;;;;;;5078943;28;20515;-42
2022/04/06 11:04:20;;;;;;;7.28;2.50;;;14.30;47.10;;;;;;5083780;28;20059;-43
2022/04/06 11:06:56;;;;;;;5.10;1.33;;;14.30;47.20;;;;;;5082789;28;20052;-43
2022/04/06 11:12:13;;;;;;;3.22;1.10;;;14.50;46.80;;;;;;5082554;28;20074;-44
2022/04/06 11:14:42;;;;;;;8.68;2.75;;;14.50;46.40;;;;;;5080709;28;20063;-43
2022/04/06 11:17:37;;;;;;;3.95;1.77;;;14.60;46.20;;;;;;5084032;28;20048;-47
2022/04/06 11:20:08;;;;;;;4.93;1.77;;;14.60;46.20;;;;;;5081326;28;21758;-43
2022/04/06 11:22:38;;;;;;;7.05;2.20;;;14.70;46.20;;;;;;5081689;28;20054;-42
2022/04/06 11:25:11;;;;;;;6.07;1.50;;;14.80;46.00;;;;;;5080622;28;20048;-43
2022/04/06 11:27:40;;;;;;;5.40;1.52;;;14.80;45.80;;;;;;5079433;28;20048;-43
2022/04/06 11:30:09;;;;;;;5.43;1.33;;;14.80;45.70;;;;;;5081737;28;20051;-42
2022/04/06 11:32:38;;;;;;;3.33;1.10;;;14.90;45.70;;;;;;5083112;28;20064;-42
2022/04/06 11:35:07;;;;;;;4.65;1.33;;;14.90;45.40;;;;;;5083061;28;20534;-43
2022/04/06 11:37:40;;;;;;;3.45;1.30;;;15.00;45.60;;;;;;5083162;28;20059;-45
2022/04/06 11:40:11;;;;;;;5.20;1.58;;;15.00;45.50;;;;;;5078925;28;20404;-44
2022/04/06 11:42:39;;;;;;;4.88;1.25;;;15.00;45.30;;;;;;5076028;28;20428;-42
2022/04/06 11:45:08;;;;;;;8.95;1.80;;;15.00;45.50;;;;;;5073544;28;20070;-44
2022/04/06 11:47:37;;;;;;;5.30;1.20;;;15.10;45.50;;;;;;5072493;28;20053;-42
2022/04/06 11:50:07;;;;;;;4.30;1.60;;;15.10;45.10;;;;;;5075855;28;20062;-43
2022/04/06 11:52:36;;;;;;;5.13;1.70;;;15.10;44.90;;;;;;5077120;28;20412;-43
2022/04/06 11:55:04;;;;;;;4.57;1.33;;;15.10;45.30;;;;;;5078148;28;20052;-42
2022/04/06 11:57:37;;;;;;;8.80;2.20;;;15.10;45.20;;;;;;5076303;28;20640;-43
2022/04/06 12:00:06;;;;;;;7.10;1.63;;;15.10;45.10;;;;;;5076670;28;20407;-42
2022/04/06 12:02:53;;;;;;;4.60;1.35;;;15.00;45.50;;;;;;5075565;28;20450;-43
2022/04/06 12:05:21;;;;;;;5.07;2.33;;;15.10;45.00;;;;;;5079130;28;20052;-41
2022/04/06 12:07:49;;;;;;;3.05;1.20;;;15.00;44.90;;;;;;5083236;28;20047;-43
2022/04/06 12:10:17;;;;;;;4.78;1.48;;;15.10;45.10;;;;;;5080617;28;20044;-42
2022/04/06 12:12:46;;;;;;;3.38;1.20;;;15.00;45.10;;;;;;5073371;28;20052;-42
2022/04/06 12:15:13;;;;;;;3.58;1.35;;;15.00;45.20;;;;;;5068318;28;20071;-45
2022/04/06 12:17:45;;;;;;;4.90;1.58;;;14.90;45.10;;;;;;5074191;28;20063;-42
2022/04/06 12:20:26;;;;;;;7.10;1.20;;;14.90;45.40;;;;;;5078084;28;20063;-44
2022/04/06 12:23:02;;;;;;;6.18;1.55;;;14.90;45.40;;;;;;5074106;28;20071;-42
2022/04/06 12:25:31;;;;;;;5.75;2.40;;;14.90;45.50;;;;;;5071533;28;20173;-43
2022/04/06 12:28:14;;;;;;;4.30;1.23;;;14.80;45.50;;;;;;5067581;28;20060;-43
2022/04/06 12:30:54;;;;;;;5.05;2.00;;;14.90;45.60;;;;;;5082207;28;20051;-42
2022/04/06 12:33:36;;;;;;;4.28;1.50;;;14.90;46.00;;;;;;5070283;28;20407;-42
2022/04/06 12:36:23;;;;;;;5.05;2.33;;;14.90;45.70;;;;;;5076730;28;20047;-43
2022/04/06 12:39:00;;;;;;;7.65;1.75;;;14.90;45.80;;;;;;5080250;28;20052;-43
2022/04/06 12:41:29;;;;;;;3.53;1.40;;;14.90;45.70;;;;;;5080604;28;20044;-43
2022/04/06 12:44:00;;;;;;;4.80;1.80;;;14.90;45.90;;;;;;5080309;28;20059;-42
2022/04/06 12:46:38;;;;;;;5.82;1.70;;;14.90;45.90;;;;;;5081577;28;20419;-43
2022/04/06 12:49:31;;;;;;;6.43;1.50;;;14.90;45.80;;;;;;5082447;28;20055;-42
2022/04/06 12:52:12;;;;;;;8.55;2.30;;;14.80;45.80;;;;;;5077263;28;20048;-42
2022/04/06 12:54:40;;;;;;;2.25;1.15;;;14.90;45.80;;;;;;5079958;28;20059;-43
2022/04/06 12:57:14;;;;;;;6.10;1.98;;;14.80;46.00;;;;;;5081748;28;20581;-42
2022/04/06 12:59:45;;;;;;;7.20;1.65;;;14.80;45.70;;;;;;5081807;28;20070;-43
2022/04/06 13:02:30;;;;;;;4.45;1.55;;;14.80;46.00;;;;;;5078028;28;20051;-43
2022/04/06 13:04:59;;;;;;;2.97;1.50;;;14.80;45.90;;;;;;5069851;28;20055;-43
2022/04/06 13:07:27;;;;;;;5.85;1.40;;;14.80;46.00;;;;;;5063299;28;20048;-42